createdAt,value
2019-02-28T00:00:26.553Z,100426.38
2019-02-28T00:02:53.868Z,100432.41
2019-02-28T00:05:20.419Z,100432.55
2019-02-28T00:07:46.235Z,100432.55
2019-02-28T00:10:12.156Z,100432.53
2019-02-28T00:12:38.101Z,100427.61
2019-02-28T00:15:06.530Z,100423.78
2019-02-28T00:17:32.365Z,100430.48
2019-02-28T00:19:58.724Z,100439.41
2019-02-28T00:22:24.754Z,100433.70
2019-02-28T00:24:50.628Z,100432.77
2019-02-28T00:27:20.924Z,100434.56
2019-02-28T00:29:44.586Z,100430.48
2019-02-28T00:32:10.660Z,100436.53
2019-02-28T00:34:39.312Z,100434.67
2019-02-28T00:37:04.398Z,100431.78
2019-02-28T00:39:31.395Z,100434.40
2019-02-28T00:41:58.017Z,100437.88
2019-02-28T00:44:23.983Z,100433.02
2019-02-28T00:46:49.919Z,100429.16
2019-02-28T00:49:15.778Z,100427.30
2019-02-28T00:51:45.212Z,100423.77
2019-02-28T00:54:11.092Z,100422.50
2019-02-28T00:56:37.036Z,100422.63
2019-02-28T00:59:03.121Z,100420.80
2019-02-28T01:01:30.606Z,100420.48
2019-02-28T01:03:58.035Z,100418.28
2019-02-28T01:06:24.496Z,100416.52
2019-02-28T01:08:52.966Z,100420.06
2019-02-28T01:11:18.305Z,100412.97
2019-02-28T01:13:44.354Z,100406.73
2019-02-28T01:16:10.213Z,100412.09
2019-02-28T01:18:36.079Z,100413.09
2019-02-28T01:21:02.131Z,100407.39
2019-02-28T01:23:29.408Z,100404.98
2019-02-28T01:25:55.873Z,100400.34
2019-02-28T01:28:23.475Z,100396.31
2019-02-28T01:30:49.470Z,100397.28
2019-02-28T01:33:15.376Z,100397.48
2019-02-28T01:35:41.508Z,100394.56
2019-02-28T01:38:07.563Z,100389.30
2019-02-28T01:40:35.195Z,100387.98
2019-02-28T01:43:01.408Z,100394.66
2019-02-28T01:45:27.243Z,100380.63
2019-02-28T01:47:53.195Z,100379.87
2019-02-28T01:50:19.145Z,100380.94
2019-02-28T01:52:46.205Z,100384.02
2019-02-28T01:55:12.276Z,100375.30
2019-02-28T01:57:42.341Z,100367.84
2019-02-28T02:00:14.981Z,100373.00
2019-02-28T02:02:40.955Z,100365.56
2019-02-28T02:05:07.125Z,100366.86
2019-02-28T02:07:34.377Z,100357.42
2019-02-28T02:10:00.804Z,100357.28
2019-02-28T02:12:31.333Z,100353.02
2019-02-28T02:14:54.532Z,100353.16
2019-02-28T02:17:20.380Z,100345.54
2019-02-28T02:19:49.362Z,100347.84
2019-02-28T02:22:14.263Z,100343.08
2019-02-28T02:24:40.202Z,100338.34
2019-02-28T02:27:06.228Z,100343.25
2019-02-28T02:29:32.397Z,100337.61
2019-02-28T02:32:02.293Z,100332.69
2019-02-28T02:34:28.290Z,100329.15
2019-02-28T02:36:55.499Z,100324.01
2019-02-28T02:39:21.449Z,100314.49
2019-02-28T02:41:47.399Z,100316.94
2019-02-28T02:44:13.252Z,100315.91
2019-02-28T02:46:39.245Z,100320.70
2019-02-28T02:49:05.119Z,100314.36
2019-02-28T02:51:30.973Z,100312.22
2019-02-28T02:53:56.891Z,100303.80
2019-02-28T02:56:22.745Z,100298.73
2019-02-28T02:58:48.737Z,100302.30
2019-02-28T03:01:14.607Z,100300.13
2019-02-28T03:03:44.120Z,100294.82
2019-02-28T03:06:12.223Z,100294.44
2019-02-28T03:08:37.325Z,100292.45
2019-02-28T03:11:03.661Z,100284.59
2019-02-28T03:13:29.607Z,100294.79
2019-02-28T03:15:59.284Z,100290.36
2019-02-28T03:18:23.446Z,100300.76
2019-02-28T03:20:49.302Z,100291.23
2019-02-28T03:23:15.184Z,100292.37
2019-02-28T03:25:41.126Z,100290.25
2019-02-28T03:28:06.950Z,100288.45
2019-02-28T03:30:33.834Z,100295.86
2019-02-28T03:33:00.059Z,100289.85
2019-02-28T03:35:25.876Z,100287.38
2019-02-28T03:37:51.859Z,100294.28
2019-02-28T03:40:17.833Z,100280.42
2019-02-28T03:42:43.719Z,100293.50
2019-02-28T03:47:58.945Z,100289.76
2019-02-28T03:50:25.584Z,100288.55
2019-02-28T03:52:51.571Z,100284.06
2019-02-28T03:55:17.683Z,100298.14
2019-02-28T03:57:43.638Z,100285.69
2019-02-28T04:00:15.912Z,100288.36
2019-02-28T04:02:41.946Z,100286.30
2019-02-28T04:05:08.376Z,100294.18
2019-02-28T04:07:34.726Z,100287.94
2019-02-28T04:10:00.849Z,100280.03
2019-02-28T04:12:26.761Z,100275.17
2019-02-28T04:14:52.613Z,100269.30
2019-02-28T04:17:18.551Z,100259.96
2019-02-28T04:19:44.562Z,100261.64
2019-02-28T04:22:10.500Z,100261.91
2019-02-28T04:24:36.333Z,100268.94
2019-02-28T04:27:06.281Z,100259.84
2019-02-28T04:29:31.340Z,100256.92
2019-02-28T04:31:58.170Z,100262.08
2019-02-28T04:34:24.105Z,100253.23
2019-02-28T04:36:50.030Z,100254.70
2019-02-28T04:39:15.915Z,100252.86
2019-02-28T04:41:41.855Z,100256.05
2019-02-28T04:44:07.745Z,100251.31
2019-02-28T04:46:33.761Z,100243.52
2019-02-28T04:48:59.718Z,100248.42
2019-02-28T04:51:25.688Z,100249.68
2019-02-28T04:53:53.140Z,100245.34
2019-02-28T04:56:19.519Z,100245.38
2019-02-28T04:58:45.423Z,100242.75
2019-02-28T05:01:12.329Z,100242.73
2019-02-28T05:03:39.132Z,100242.75
2019-02-28T05:06:05.086Z,100245.07
2019-02-28T05:08:31.139Z,100253.47
2019-02-28T05:10:56.994Z,100243.97
2019-02-28T05:13:22.837Z,100255.39
2019-02-28T05:15:48.816Z,100251.91
2019-02-28T05:18:14.642Z,100253.20
2019-02-28T05:20:44.668Z,100255.84
2019-02-28T05:23:08.438Z,100252.02
2019-02-28T05:25:36.193Z,100255.13
2019-02-28T05:28:02.238Z,100262.24
2019-02-28T05:30:28.240Z,100261.80
2019-02-28T05:32:54.089Z,100262.55
2019-02-28T05:35:25.527Z,100260.01
2019-02-28T05:37:48.551Z,100262.72
2019-02-28T05:40:15.934Z,100261.34
2019-02-28T05:42:42.038Z,100262.64
2019-02-28T05:45:11.398Z,100262.64
2019-02-28T05:47:45.813Z,100260.95
2019-02-28T05:50:15.455Z,100267.03
2019-02-28T05:52:37.707Z,100263.08
2019-02-28T05:55:08.381Z,100256.61
2019-02-28T05:57:34.340Z,100256.64
2019-02-28T06:00:01.883Z,100260.66
2019-02-28T06:02:28.486Z,100260.69
2019-02-28T06:04:54.345Z,100262.08
2019-02-28T06:07:20.310Z,100261.14
2019-02-28T06:09:48.666Z,100259.34
2019-02-28T06:12:14.613Z,100258.95
2019-02-28T06:14:40.493Z,100267.55
2019-02-28T06:17:06.326Z,100260.13
2019-02-28T06:19:32.274Z,100265.91
2019-02-28T06:21:59.429Z,100265.95
2019-02-28T06:24:25.941Z,100265.35
2019-02-28T06:26:51.754Z,100260.47
2019-02-28T06:29:17.699Z,100267.45
2019-02-28T06:31:45.430Z,100267.52
2019-02-28T06:34:11.471Z,100273.18
2019-02-28T06:36:37.333Z,100265.44
2019-02-28T06:39:04.915Z,100261.12
2019-02-28T06:41:30.812Z,100265.27
2019-02-28T06:43:56.783Z,100259.05
2019-02-28T06:46:22.649Z,100254.64
2019-02-28T06:48:48.607Z,100262.98
2019-02-28T06:51:16.818Z,100264.31
2019-02-28T06:53:42.337Z,100260.25
2019-02-28T06:56:08.222Z,100257.89
2019-02-28T06:58:34.165Z,100263.52
2019-02-28T07:01:00.247Z,100268.41
2019-02-28T07:03:26.106Z,100274.88
2019-02-28T07:05:51.928Z,100272.52
2019-02-28T07:08:20.741Z,100275.06
2019-02-28T07:10:48.378Z,100272.39
2019-02-28T07:13:13.515Z,100272.20
2019-02-28T07:15:39.440Z,100269.62
2019-02-28T07:18:05.285Z,100275.98
2019-02-28T07:20:31.254Z,100268.29
2019-02-28T07:22:57.214Z,100268.02
2019-02-28T07:25:23.282Z,100273.30
2019-02-28T07:27:49.287Z,100261.92
2019-02-28T07:30:19.227Z,100264.75
2019-02-28T07:32:45.584Z,100276.95
2019-02-28T07:35:11.848Z,100267.58
2019-02-28T07:37:37.801Z,100266.28
2019-02-28T07:40:15.509Z,100264.23
2019-02-28T07:42:38.604Z,100269.31
2019-02-28T07:45:06.643Z,100280.83
2019-02-28T07:47:32.512Z,100270.26
2019-02-28T07:49:58.447Z,100275.41
2019-02-28T07:52:24.263Z,100274.77
2019-02-28T07:54:51.841Z,100277.87
2019-02-28T07:57:18.068Z,100273.84
2019-02-28T07:59:44.050Z,100275.38
2019-02-28T08:02:09.876Z,100275.34
2019-02-28T08:04:35.849Z,100273.05
2019-02-28T08:07:01.805Z,100266.86
2019-02-28T08:09:28.146Z,100270.58
2019-02-28T08:11:55.504Z,100272.73
2019-02-28T08:14:21.874Z,100274.53
2019-02-28T08:16:47.756Z,100269.95
2019-02-28T08:19:13.737Z,100270.52
2019-02-28T08:21:43.958Z,100276.80
2019-02-28T08:24:07.449Z,100276.06
2019-02-28T08:26:33.426Z,100282.59
2019-02-28T08:28:59.479Z,100277.41
2019-02-28T08:31:28.314Z,100280.52
2019-02-28T08:33:53.354Z,100282.01
2019-02-28T08:36:19.536Z,100283.39
2019-02-28T08:38:45.645Z,100288.97
2019-02-28T08:41:11.488Z,100277.39
2019-02-28T08:43:37.570Z,100275.45
2019-02-28T08:46:09.625Z,100267.45
2019-02-28T08:48:32.496Z,100270.06
2019-02-28T08:50:59.336Z,100261.64
2019-02-28T08:53:25.221Z,100261.41
2019-02-28T08:55:51.175Z,100253.20
2019-02-28T08:58:20.993Z,100264.07
2019-02-28T09:00:47.022Z,100259.31
2019-02-28T09:03:12.893Z,100248.16
2019-02-28T09:05:38.997Z,100256.52
2019-02-28T09:08:05.032Z,100253.17
2019-02-28T09:10:30.870Z,100251.45
2019-02-28T09:12:56.852Z,100254.44
2019-02-28T09:15:22.983Z,100247.28
2019-02-28T09:17:48.931Z,100253.28
2019-02-28T09:20:15.630Z,100244.88
2019-02-28T09:22:41.757Z,100247.80
2019-02-28T09:25:21.977Z,100236.33
2019-02-28T09:27:48.342Z,100240.11
2019-02-28T09:30:17.460Z,100239.08
2019-02-28T09:32:45.266Z,100231.74
2019-02-28T09:35:14.420Z,100234.20
2019-02-28T09:37:39.214Z,100224.77
2019-02-28T09:40:11.220Z,100219.13
2019-02-28T09:42:37.256Z,100217.04
2019-02-28T09:45:09.717Z,100205.98
2019-02-28T09:47:35.609Z,100208.92
2019-02-28T09:50:01.423Z,100193.22
2019-02-28T09:52:27.454Z,100188.83
2019-02-28T09:54:56.313Z,100195.72
2019-02-28T09:57:22.658Z,100188.25
2019-02-28T09:59:48.646Z,100190.23
2019-02-28T10:02:14.530Z,100185.13
2019-02-28T10:04:40.379Z,100180.70
2019-02-28T10:07:06.356Z,100184.06
2019-02-28T10:09:32.328Z,100183.14
2019-02-28T10:11:58.187Z,100179.06
2019-02-28T10:14:25.734Z,100181.88
2019-02-28T10:16:52.660Z,100179.16
2019-02-28T10:19:19.213Z,100182.41
2019-02-28T10:21:51.635Z,100171.20
2019-02-28T10:24:12.817Z,100167.91
2019-02-28T10:26:38.860Z,100158.66
2019-02-28T10:29:07.443Z,100151.84
2019-02-28T10:31:36.422Z,100147.77
2019-02-28T10:34:00.315Z,100141.99
2019-02-28T10:36:26.256Z,100139.69
2019-02-28T10:38:52.260Z,100137.12
2019-02-28T10:41:18.086Z,100135.53
2019-02-28T10:43:49.913Z,100132.78
2019-02-28T10:46:16.573Z,100129.64
2019-02-28T10:48:50.807Z,100125.78
2019-02-28T10:51:13.941Z,100123.02
2019-02-28T10:53:39.317Z,100120.77
2019-02-28T10:56:06.217Z,100111.56
2019-02-28T10:58:32.191Z,100117.34
2019-02-28T11:00:58.237Z,100104.90
2019-02-28T11:03:24.307Z,100108.69
2019-02-28T11:05:53.371Z,100109.09
2019-02-28T11:08:19.256Z,100103.58
2019-02-28T11:10:45.667Z,100103.77
2019-02-28T11:13:17.865Z,100101.45
2019-02-28T11:15:47.865Z,100098.19
2019-02-28T11:18:12.286Z,100097.14
2019-02-28T11:20:39.129Z,100098.78
2019-02-28T11:23:05.334Z,100092.31
2019-02-28T11:25:34.667Z,100080.09
2019-02-28T11:27:59.340Z,100085.26
2019-02-28T11:30:31.930Z,100071.23
2019-02-28T11:33:02.996Z,100053.97
2019-02-28T11:35:26.819Z,100042.44
2019-02-28T11:37:52.939Z,100043.28
2019-02-28T11:40:21.503Z,100044.85
2019-02-28T11:42:47.441Z,100035.45
2019-02-28T11:45:18.552Z,100033.17
2019-02-28T11:47:47.492Z,100040.84
2019-02-28T11:50:13.672Z,100037.70
2019-02-28T11:52:40.049Z,100025.74
2019-02-28T11:55:11.494Z,100021.61
2019-02-28T11:57:41.336Z,100021.02
2019-02-28T12:00:21.981Z,100025.73
2019-02-28T12:02:59.891Z,100016.97
2019-02-28T12:05:21.553Z,100005.20
2019-02-28T12:07:47.620Z,100016.13
2019-02-28T12:10:13.739Z,100011.05
2019-02-28T12:12:41.576Z,100006.73
2019-02-28T12:15:10.724Z,99997.48
2019-02-28T12:17:36.743Z,99995.06
2019-02-28T12:20:05.711Z,99984.33
2019-02-28T12:22:31.725Z,99991.53
2019-02-28T12:24:57.627Z,99985.86
2019-02-28T12:27:24.440Z,99974.77
2019-02-28T12:29:51.384Z,99968.17
2019-02-28T12:32:17.312Z,99960.44
2019-02-28T12:34:43.235Z,99946.81
2019-02-28T12:37:09.181Z,99947.27
2019-02-28T12:39:36.322Z,99938.63
2019-02-28T12:42:03.165Z,99923.18
2019-02-28T12:44:29.228Z,99923.73
2019-02-28T12:46:55.047Z,99925.87
2019-02-28T12:49:22.392Z,99918.03
2019-02-28T12:51:49.223Z,99919.91
2019-02-28T12:54:15.145Z,99929.07
2019-02-28T12:56:41.308Z,99921.42
2019-02-28T12:59:09.977Z,99906.52
2019-02-28T13:01:35.281Z,99911.13
2019-02-28T13:04:01.397Z,99912.72
2019-02-28T13:06:27.368Z,99906.42
2019-02-28T13:08:53.545Z,99902.52
2019-02-28T13:11:19.440Z,99902.47
2019-02-28T13:13:45.348Z,99891.41
2019-02-28T13:16:11.222Z,99881.81
2019-02-28T13:18:39.665Z,99885.78
2019-02-28T13:21:06.269Z,99862.31
2019-02-28T13:23:34.025Z,99849.20
2019-02-28T13:26:00.275Z,99848.87
2019-02-28T13:28:26.424Z,99850.54
2019-02-28T13:30:52.707Z,99844.91
2019-02-28T13:33:18.629Z,99844.14
2019-02-28T13:35:47.161Z,99860.53
2019-02-28T13:38:17.427Z,99830.91
2019-02-28T13:40:40.777Z,99833.97
2019-02-28T13:43:08.492Z,99827.05
2019-02-28T13:45:34.551Z,99817.91
2019-02-28T13:48:00.515Z,99809.17
2019-02-28T13:50:28.059Z,99808.05
2019-02-28T13:52:54.137Z,99794.60
2019-02-28T13:55:20.240Z,99794.09
2019-02-28T13:57:46.959Z,99791.14
2019-02-28T14:00:28.425Z,99789.06
2019-02-28T14:03:00.032Z,99777.84
2019-02-28T14:05:26.087Z,99779.77
2019-02-28T14:07:52.147Z,99788.14
2019-02-28T14:10:18.879Z,99773.65
2019-02-28T14:12:45.034Z,99778.09
2019-02-28T14:15:17.746Z,99771.18
2019-02-28T14:17:43.690Z,99778.91
2019-02-28T14:20:10.442Z,99762.76
2019-02-28T14:22:36.601Z,99750.84
2019-02-28T14:25:06.096Z,99744.36
2019-02-28T14:27:31.481Z,99736.64
2019-02-28T14:29:57.532Z,99728.63
2019-02-28T14:32:23.421Z,99731.16
2019-02-28T14:34:49.336Z,99730.91
2019-02-28T14:37:16.854Z,99726.44
2019-02-28T14:39:43.601Z,99715.16
2019-02-28T14:42:09.724Z,99714.05
2019-02-28T14:44:35.566Z,99720.44
2019-02-28T14:47:01.778Z,99723.16
2019-02-28T14:49:27.700Z,99733.66
2019-02-28T14:51:53.560Z,99733.77
2019-02-28T14:54:21.816Z,99732.99
2019-02-28T14:56:47.123Z,99717.16
2019-02-28T14:59:13.052Z,99726.11
2019-02-28T15:01:39.131Z,99727.69
2019-02-28T15:04:07.783Z,99737.19
2019-02-28T15:06:32.799Z,99723.26
2019-02-28T15:09:05.823Z,99724.36
2019-02-28T15:11:31.959Z,99716.14
2019-02-28T15:13:57.792Z,99719.81
2019-02-28T15:16:26.572Z,99714.69
2019-02-28T15:18:51.505Z,99729.47
2019-02-28T15:21:17.448Z,99726.64
2019-02-28T15:23:43.301Z,99728.33
2019-02-28T15:26:09.217Z,99718.19
2019-02-28T15:28:35.301Z,99720.36
2019-02-28T15:31:01.243Z,99705.70
2019-02-28T15:33:27.505Z,99691.98
2019-02-28T15:35:55.020Z,99688.53
2019-02-28T15:38:20.840Z,99687.31
2019-02-28T15:40:46.881Z,99693.64
2019-02-28T15:43:17.157Z,99690.81
2019-02-28T15:45:40.906Z,99690.94
2019-02-28T15:48:06.855Z,99691.42
2019-02-28T15:50:32.819Z,99693.36
2019-02-28T15:52:58.928Z,99687.20
2019-02-28T15:55:25.357Z,99681.34
2019-02-28T15:57:51.591Z,99681.84
2019-02-28T16:00:22.107Z,99683.20
2019-02-28T16:02:48.974Z,99670.77
2019-02-28T16:05:15.242Z,99679.28
2019-02-28T16:07:41.330Z,99676.36
2019-02-28T16:10:11.061Z,99673.85
2019-02-28T16:12:37.000Z,99665.44
2019-02-28T16:15:08.737Z,99653.06
2019-02-28T16:17:36.649Z,99652.75
2019-02-28T16:20:04.451Z,99648.17
2019-02-28T16:22:30.436Z,99655.85
2019-02-28T16:24:56.618Z,99648.61
2019-02-28T16:27:22.668Z,99652.27
2019-02-28T16:29:48.768Z,99661.28
2019-02-28T16:32:15.412Z,99652.59
2019-02-28T16:34:42.240Z,99655.09
2019-02-28T16:37:09.234Z,99651.98
2019-02-28T16:39:35.061Z,99655.72
2019-02-28T16:42:01.082Z,99655.45
2019-02-28T16:44:27.603Z,99655.93
2019-02-28T16:46:56.013Z,99656.67
2019-02-28T16:49:22.053Z,99654.58
2019-02-28T16:51:48.120Z,99655.31
2019-02-28T16:54:14.214Z,99653.85
2019-02-28T16:56:40.045Z,99659.32
2019-02-28T16:59:05.896Z,99657.02
2019-02-28T17:01:31.757Z,99649.93
2019-02-28T17:03:57.705Z,99653.12
2019-02-28T17:06:23.895Z,99651.80
2019-02-28T17:08:54.544Z,99652.66
2019-02-28T17:11:19.865Z,99650.47
2019-02-28T17:13:47.844Z,99643.70
2019-02-28T17:16:15.853Z,99654.55
2019-02-28T17:18:42.096Z,99650.81
2019-02-28T17:21:08.051Z,99653.62
2019-02-28T17:23:36.826Z,99652.02
2019-02-28T17:26:01.886Z,99655.30
2019-02-28T17:28:38.638Z,99663.30
2019-02-28T17:31:23.225Z,99662.44
2019-02-28T17:33:52.118Z,99668.00
2019-02-28T17:36:17.931Z,99655.65
2019-02-28T17:38:44.012Z,99654.30
2019-02-28T17:41:11.135Z,99659.63
2019-02-28T17:43:37.374Z,99660.17
2019-02-28T17:46:03.328Z,99661.45
2019-02-28T17:48:59.123Z,99659.47
2019-02-28T17:51:28.807Z,99656.12
2019-02-28T17:54:01.267Z,99652.31
2019-02-28T17:56:55.169Z,99654.20
2019-02-28T17:59:49.432Z,99660.58
2019-02-28T18:02:34.477Z,99665.59
2019-02-28T18:05:29.923Z,99665.23
2019-02-28T18:07:53.885Z,99672.85
2019-02-28T18:10:32.837Z,99676.55
2019-02-28T18:13:19.977Z,99679.61
2019-02-28T18:16:05.500Z,99677.73
2019-02-28T18:18:59.282Z,99680.22
2019-02-28T18:21:31.752Z,99678.47
2019-02-28T18:24:30.090Z,99679.50
2019-02-28T18:27:28.755Z,99682.13
2019-02-28T18:30:18.089Z,99677.19
2019-02-28T18:32:43.939Z,99677.73
2019-02-28T18:35:09.879Z,99686.23
2019-02-28T18:37:35.846Z,99679.77
2019-02-28T18:40:03.769Z,99680.54
2019-02-28T18:42:29.766Z,99691.29
2019-02-28T18:44:55.600Z,99695.23
2019-02-28T18:47:21.560Z,99700.42
2019-02-28T18:49:47.407Z,99701.12
2019-02-28T18:52:13.283Z,99707.76
2019-02-28T18:54:39.413Z,99704.64
2019-02-28T18:57:05.397Z,99707.70
2019-02-28T18:59:31.393Z,99722.16
2019-02-28T19:01:57.328Z,99720.50
2019-02-28T19:04:23.210Z,99709.09
2019-02-28T19:06:49.060Z,99705.59
2019-02-28T19:09:17.884Z,99712.16
2019-02-28T19:11:43.771Z,99712.75
2019-02-28T19:14:13.605Z,99715.80
2019-02-28T19:16:39.452Z,99717.65
2019-02-28T19:19:05.428Z,99722.66
2019-02-28T19:21:31.286Z,99725.69
2019-02-28T19:23:57.240Z,99723.52
2019-02-28T19:26:23.219Z,99731.00
2019-02-28T19:28:49.057Z,99678.27
2019-02-28T19:31:15.004Z,99714.41
2019-02-28T19:33:40.953Z,99723.47
2019-02-28T19:36:06.935Z,99723.48
2019-02-28T19:38:32.875Z,99713.70
2019-02-28T19:40:58.709Z,99721.50
2019-02-28T19:43:24.690Z,99720.34
2019-02-28T19:45:53.699Z,99708.38
2019-02-28T19:48:19.548Z,99712.11
2019-02-28T19:50:45.581Z,99723.28
2019-02-28T19:53:11.501Z,99731.00
2019-02-28T19:55:37.364Z,99732.80
2019-02-28T19:58:03.609Z,99725.13
2019-02-28T20:00:29.725Z,99727.66
2019-02-28T20:02:55.585Z,99737.68
2019-02-28T20:05:21.665Z,99726.47
2019-02-28T20:07:47.861Z,99719.42
2019-02-28T20:10:15.376Z,99719.61
2019-02-28T20:12:41.413Z,99726.91
2019-02-28T20:15:10.671Z,99724.78
2019-02-28T20:17:36.991Z,99712.02
2019-02-28T20:20:07.257Z,99722.05
2019-02-28T20:22:33.203Z,99739.45
2019-02-28T20:24:59.198Z,99745.88
2019-02-28T20:27:25.367Z,99747.89
2019-02-28T20:29:55.034Z,99742.03
2019-02-28T20:32:19.354Z,99740.33
2019-02-28T20:34:45.524Z,99733.05
2019-02-28T20:37:11.502Z,99742.96
2019-02-28T20:39:37.737Z,99742.97
2019-02-28T20:42:03.930Z,99745.95
2019-02-28T20:44:29.848Z,99742.93
2019-02-28T20:46:55.853Z,99735.29
2019-02-28T20:49:21.945Z,99731.21
2019-02-28T20:51:54.772Z,99732.66
2019-02-28T20:54:15.703Z,99734.24
2019-02-28T20:56:44.617Z,99733.78
2019-02-28T20:59:10.684Z,99731.52
2019-02-28T21:01:36.631Z,99734.08
2019-02-28T21:04:02.674Z,99742.06
2019-02-28T21:06:28.736Z,99751.05
2019-02-28T21:08:54.872Z,99750.79
2019-02-28T21:11:20.932Z,99749.22
2019-02-28T21:13:46.998Z,99747.92
2019-02-28T21:16:13.119Z,99738.92
2019-02-28T21:18:39.213Z,99748.41
2019-02-28T21:21:05.286Z,99741.20
2019-02-28T21:23:31.287Z,99737.62
2019-02-28T21:25:57.486Z,99745.86
2019-02-28T21:28:23.325Z,99740.13
2019-02-28T21:30:49.409Z,99745.80
2019-02-28T21:33:15.396Z,99741.75
2019-02-28T21:35:41.608Z,99742.95
2019-02-28T21:38:07.683Z,99737.92
2019-02-28T21:40:34.335Z,99741.49
2019-02-28T21:43:00.326Z,99738.03
2019-02-28T21:45:27.232Z,99734.16
2019-02-28T21:47:53.602Z,99732.92
2019-02-28T21:50:21.193Z,99734.09
2019-02-28T21:52:48.021Z,99746.89
2019-02-28T21:55:17.244Z,99744.75
2019-02-28T21:57:43.260Z,99752.22
2019-02-28T22:00:28.128Z,99751.86
2019-02-28T22:02:54.102Z,99752.06
2019-02-28T22:05:20.251Z,99757.44
2019-02-28T22:07:46.421Z,99755.38
2019-02-28T22:10:14.192Z,99748.89
2019-02-28T22:12:40.331Z,99737.08
2019-02-28T22:15:12.536Z,99735.30
2019-02-28T22:17:38.659Z,99728.88
2019-02-28T22:20:06.578Z,99725.34
2019-02-28T22:22:32.947Z,99720.76
2019-02-28T22:24:59.247Z,99723.55
2019-02-28T22:27:25.129Z,99721.62
2019-02-28T22:29:51.105Z,99721.97
2019-02-28T22:32:24.380Z,99720.84
2019-02-28T22:34:48.723Z,99723.81
2019-02-28T22:37:14.694Z,99708.74
2019-02-28T22:39:40.782Z,99710.84
2019-02-28T22:42:06.814Z,99701.41
2019-02-28T22:44:32.668Z,99696.68
2019-02-28T22:46:58.508Z,99687.95
2019-02-28T22:49:24.466Z,99686.47
2019-02-28T22:51:50.461Z,99684.41
2019-02-28T22:54:16.481Z,99681.85
2019-02-28T22:56:42.568Z,99687.02
2019-02-28T22:59:08.445Z,99693.96
2019-02-28T23:01:35.132Z,99687.24
2019-02-28T23:04:01.050Z,99683.36
2019-02-28T23:06:26.917Z,99671.33
2019-02-28T23:08:52.879Z,99672.09
2019-02-28T23:11:18.895Z,99676.99
2019-02-28T23:13:44.747Z,99665.70
2019-02-28T23:16:10.830Z,99670.23
2019-02-28T23:18:36.702Z,99672.48
2019-02-28T23:21:03.058Z,99671.33
2019-02-28T23:23:29.184Z,99673.59
2019-02-28T23:26:07.873Z,99666.23
2019-02-28T23:28:36.897Z,99667.28
2019-02-28T23:31:06.565Z,99667.79
2019-02-28T23:33:32.419Z,99665.99
2019-02-28T23:35:58.375Z,99657.69
2019-02-28T23:38:24.362Z,99648.58
2019-02-28T23:40:50.223Z,99642.63
2019-02-28T23:43:16.493Z,99638.40
2019-02-28T23:45:42.558Z,99636.81
2019-02-28T23:48:08.845Z,99627.65
2019-02-28T23:50:34.864Z,99631.14
2019-02-28T23:53:00.739Z,99645.38
2019-02-28T23:55:26.934Z,99648.51
2019-02-28T23:57:52.771Z,99645.27
